WXM80 ListenWXM80 Stop

You find our weather info also at:

UK Metoffice

WeatherCloud

Weather Underground

Northeastern Weather Network

AWEKAS

Citizen Weather Observer Program (CWOP)

HAMweather, WeatherForYou, PWS Weather


Weather Underground History page Text

Daily Summary for September 10, 2017 Units:  English    Metric   Both
« Previous Day
Next Day »
Daily Weekly Monthly Yearly Custom
  High: Low: Average:
Temperature: 76.7 °F 58.5 °F 66 °F
Dew Point: 59.9 °F 52.2 °F 55.4 °F
Humidity: 87 % 51 % 70 %
Wind Speed: 8.0 mph 0.0 mph 2.6 mph
Wind Gust: 15.0 mph - -
Wind:- - SSE
Pressure: 30.31 in 30.23 in -
Precipitation: 0.00 in    
Historical Graphs
 
 
Tabular Data for September 10, 2017
Time Temperature Dew Point Pressure Wind Wind Speed Wind Gust Humidity Rainfall Rate (Hourly)
00:03 62.0 °F 55.4 °F 30.23 in NNE 8.0 mph 11.5 mph 79 % 0.00 in
00:08 62.0 °F 55.4 °F 30.23 in NNE 5.8 mph 10.4 mph 79 % 0.00 in
00:13 62.0 °F 55.4 °F 30.23 in NNE 5.3 mph 9.2 mph 79 % 0.00 in
00:18 62.0 °F 55.4 °F 30.23 in NNE 5.8 mph 10.4 mph 79 % 0.00 in
00:23 62.0 °F 55.4 °F 30.23 in North 4.0 mph 6.9 mph 79 % 0.00 in
00:28 61.9 °F 55.3 °F 30.23 in ENE 5.8 mph 9.2 mph 79 % 0.00 in
00:33 61.9 °F 55.3 °F 30.23 in ENE 7.2 mph 10.0 mph 79 % 0.00 in
00:38 61.9 °F 55.3 °F 30.23 in NE 3.9 mph 6.0 mph 79 % 0.00 in
00:43 61.8 °F 55.2 °F 30.24 in NE 4.8 mph 5.8 mph 79 % 0.00 in
00:48 61.8 °F 55.2 °F 30.23 in NE 5.6 mph 10.0 mph 79 % 0.00 in
00:53 61.8 °F 55.2 °F 30.23 in North 3.7 mph 9.0 mph 79 % 0.00 in
00:58 61.7 °F 55.1 °F 30.24 in North 4.4 mph 4.4 mph 79 % 0.00 in
01:03 61.7 °F 55.5 °F 30.24 in NNE 3.5 mph 10.4 mph 80 % 0.00 in
01:08 61.6 °F 55.4 °F 30.24 in North 4.2 mph 8.1 mph 80 % 0.00 in
01:13 61.6 °F 55.4 °F 30.24 in NNW 4.2 mph 7.0 mph 80 % 0.00 in
01:19 61.4 °F 55.2 °F 30.23 in North 3.9 mph 8.1 mph 80 % 0.00 in
01:24 61.4 °F 55.2 °F 30.24 in NNE 3.2 mph 6.0 mph 80 % 0.00 in
01:29 61.3 °F 55.1 °F 30.24 in North 3.1 mph 8.1 mph 80 % 0.00 in
01:34 61.3 °F 55.1 °F 30.23 in North 1.7 mph 4.6 mph 80 % 0.00 in
01:39 61.2 °F 55.3 °F 30.23 in North 5.0 mph 6.9 mph 81 % 0.00 in
01:44 61.1 °F 54.9 °F 30.24 in North 3.0 mph 9.2 mph 80 % 0.00 in
01:49 61.0 °F 55.1 °F 30.24 in NNE 3.6 mph 5.8 mph 81 % 0.00 in
01:54 60.9 °F 55.0 °F 30.24 in North 4.8 mph 6.9 mph 81 % 0.00 in
01:59 60.9 °F 55.0 °F 30.24 in North 2.0 mph 4.6 mph 81 % 0.00 in
02:04 60.8 °F 54.9 °F 30.24 in NNE 5.0 mph 6.9 mph 81 % 0.00 in
02:09 60.7 °F 54.8 °F 30.24 in NNE 4.4 mph 8.1 mph 81 % 0.00 in
02:14 60.6 °F 55.1 °F 30.24 in NNE 2.2 mph 6.9 mph 82 % 0.00 in
02:19 60.5 °F 55.0 °F 30.24 in NNW 2.9 mph 5.0 mph 82 % 0.00 in
02:24 60.4 °F 54.9 °F 30.24 in NNW 4.4 mph 8.1 mph 82 % 0.00 in
02:29 60.4 °F 54.9 °F 30.24 in NNE 3.4 mph 9.0 mph 82 % 0.00 in
02:34 60.3 °F 55.1 °F 30.24 in North 1.5 mph 5.8 mph 83 % 0.00 in
02:39 60.2 °F 55.0 °F 30.24 in North 1.1 mph 4.6 mph 83 % 0.00 in
02:44 60.1 °F 54.9 °F 30.24 in NNE 4.2 mph 8.1 mph 83 % 0.00 in
02:49 60.0 °F 54.8 °F 30.24 in NNW 1.5 mph 4.6 mph 83 % 0.00 in
02:54 60.0 °F 54.8 °F 30.24 in NNW 3.6 mph 6.9 mph 83 % 0.00 in
03:00 59.9 °F 54.7 °F 30.24 in North 1.9 mph 5.8 mph 83 % 0.00 in
03:05 59.9 °F 54.7 °F 30.24 in NNW 3.7 mph 8.1 mph 83 % 0.00 in
03:10 59.8 °F 55.0 °F 30.24 in North 5.7 mph 8.1 mph 84 % 0.00 in
03:15 59.8 °F 54.6 °F 30.24 in NNE 2.6 mph 8.1 mph 83 % 0.00 in
03:20 59.8 °F 54.6 °F 30.24 in North 1.7 mph 3.5 mph 83 % 0.00 in
03:25 59.8 °F 54.6 °F 30.24 in Calm   2.3 mph 83 % 0.00 in
03:30 59.7 °F 54.9 °F 30.24 in NNW 4.8 mph 7.0 mph 84 % 0.00 in
03:35 59.6 °F 54.4 °F 30.24 in NNW 2.0 mph 6.9 mph 83 % 0.00 in
03:40 59.6 °F 54.4 °F 30.24 in North 4.0 mph 8.1 mph 83 % 0.00 in
03:45 59.6 °F 54.4 °F 30.25 in North 3.1 mph 5.8 mph 83 % 0.00 in
03:50 59.5 °F 54.3 °F 30.25 in North 3.5 mph 7.0 mph 83 % 0.00 in
03:55 59.5 °F 54.7 °F 30.25 in North 1.4 mph 3.5 mph 84 % 0.00 in
04:00 59.5 °F 54.7 °F 30.25 in North 1.4 mph 2.0 mph 84 % 0.00 in
04:05 59.5 °F 54.3 °F 30.25 in NE 0.4 mph 4.6 mph 83 % 0.00 in
04:10 59.4 °F 54.6 °F 30.25 in Calm   2.3 mph 84 % 0.00 in
04:15 59.4 °F 54.6 °F 30.25 in North 0.4 mph 4.6 mph 84 % 0.00 in
04:20 59.4 °F 54.6 °F 30.25 in Calm   2.3 mph 84 % 0.00 in
04:26 59.3 °F 54.5 °F 30.25 in North 1.0 mph 6.0 mph 84 % 0.00 in
04:31 59.3 °F 54.5 °F 30.25 in Calm   3.5 mph 84 % 0.00 in
04:36 59.2 °F 54.7 °F 30.25 in NNW 1.0 mph 4.0 mph 85 % 0.00 in
04:41 59.2 °F 54.7 °F 30.25 in NNW 1.0 mph 4.0 mph 85 % 0.00 in
04:42 59.2 °F 54.7 °F 30.25 in NE 4.3 mph 6.9 mph 85 % 0.00 in
04:47 59.1 °F 54.3 °F 30.25 in Calm     84 % 0.00 in
04:52 59.1 °F 54.6 °F 30.25 in North 3.7 mph 6.9 mph 85 % 0.00 in
04:57 59.0 °F 54.5 °F 30.25 in SW 1.4 mph 3.5 mph 85 % 0.00 in
05:02 59.0 °F 54.2 °F 30.25 in NNE 3.5 mph 4.6 mph 84 % 0.00 in
05:07 59.0 °F 54.5 °F 30.25 in Calm   3.5 mph 85 % 0.00 in
05:13 59.0 °F 54.5 °F 30.25 in ENE 3.3 mph 5.0 mph 85 % 0.00 in
05:18 58.9 °F 54.4 °F 30.26 in NNE 3.9 mph 5.8 mph 85 % 0.00 in
05:23 58.9 °F 54.4 °F 30.26 in Calm     85 % 0.00 in
05:28 58.8 °F 54.3 °F 30.26 in NE 3.6 mph 5.0 mph 85 % 0.00 in
05:33 58.8 °F 54.3 °F 30.26 in NNE 1.6 mph 6.0 mph 85 % 0.00 in
05:38 58.8 °F 54.3 °F 30.26 in NE 4.1 mph 8.1 mph 85 % 0.00 in
05:43 58.7 °F 54.2 °F 30.26 in NW 1.4 mph 10.4 mph 85 % 0.00 in
05:48 58.7 °F 54.2 °F 30.26 in NNE 1.2 mph 3.5 mph 85 % 0.00 in
05:53 58.7 °F 54.2 °F 30.27 in NE 3.6 mph 11.5 mph 85 % 0.00 in
05:58 58.6 °F 54.1 °F 30.27 in NNW 1.1 mph 4.6 mph 85 % 0.00 in
06:03 58.7 °F 54.5 °F 30.27 in NE 5.5 mph 5.8 mph 86 % 0.00 in
06:09 58.6 °F 54.4 °F 30.27 in NNE 3.9 mph 9.0 mph 86 % 0.00 in
06:14 58.6 °F 54.1 °F 30.27 in NE 4.1 mph 10.0 mph 85 % 0.00 in
06:19 58.6 °F 54.4 °F 30.28 in North 7.4 mph 11.5 mph 86 % 0.00 in
06:24 58.5 °F 54.3 °F 30.28 in NNW 2.9 mph 6.9 mph 86 % 0.00 in
06:29 58.5 °F 54.3 °F 30.28 in North 0.8 mph 3.5 mph 86 % 0.00 in
06:34 58.5 °F 54.3 °F 30.28 in North 3.5 mph 8.1 mph 86 % 0.00 in
06:39 58.5 °F 54.3 °F 30.28 in NNW 2.9 mph 10.4 mph 86 % 0.00 in
06:44 58.5 °F 54.3 °F 30.29 in North 3.1 mph 6.9 mph 86 % 0.00 in
06:49 58.5 °F 54.6 °F 30.29 in North 5.3 mph 9.2 mph 87 % 0.00 in
06:54 58.6 °F 54.4 °F 30.29 in NNE 3.7 mph 8.1 mph 86 % 0.00 in
06:59 58.6 °F 54.4 °F 30.29 in NNW 7.3 mph 13.8 mph 86 % 0.00 in
07:04 58.6 °F 54.4 °F 30.30 in North 6.1 mph 11.5 mph 86 % 0.00 in
07:09 58.7 °F 54.5 °F 30.30 in NNW 7.1 mph 12.7 mph 86 % 0.00 in
07:14 58.7 °F 54.5 °F 30.30 in NNW 5.2 mph 8.1 mph 86 % 0.00 in
07:19 58.7 °F 54.5 °F 30.30 in NNE 4.6 mph 7.0 mph 86 % 0.00 in
07:24 58.8 °F 54.6 °F 30.30 in NNE 5.4 mph 11.5 mph 86 % 0.00 in
07:29 58.8 °F 54.6 °F 30.30 in NNE 7.6 mph 11.5 mph 86 % 0.00 in
07:34 58.8 °F 54.6 °F 30.30 in NNE 4.6 mph 6.9 mph 86 % 0.00 in
07:39 58.9 °F 54.7 °F 30.30 in NNW 6.5 mph 9.0 mph 86 % 0.00 in
07:44 59.0 °F 54.8 °F 30.30 in North 5.5 mph 11.5 mph 86 % 0.00 in
07:49 59.0 °F 54.8 °F 30.30 in NNE 4.6 mph 9.2 mph 86 % 0.00 in
07:54 59.2 °F 55.0 °F 30.30 in NE 5.7 mph 9.2 mph 86 % 0.00 in
07:59 59.3 °F 54.8 °F 30.30 in NE 7.1 mph 15.0 mph 85 % 0.00 in
08:04 59.3 °F 54.8 °F 30.30 in North 3.6 mph 8.1 mph 85 % 0.00 in
08:09 59.4 °F 54.9 °F 30.30 in NE 4.3 mph 8.1 mph 85 % 0.00 in
08:15 59.5 °F 55.0 °F 30.30 in NNW 3.7 mph 5.8 mph 85 % 0.00 in
08:20 59.6 °F 54.8 °F 30.30 in NNE 5.4 mph 10.4 mph 84 % 0.00 in
08:25 59.7 °F 55.2 °F 30.30 in NNE 3.3 mph 8.0 mph 85 % 0.00 in
08:29 59.8 °F 55.0 °F 30.30 in NW 7.2 mph 11.5 mph 84 % 0.00 in
08:34 59.9 °F 55.1 °F 30.30 in NNE 7.9 mph 10.4 mph 84 % 0.00 in
08:39 60.1 °F 55.2 °F 30.30 in NE 6.9 mph 10.4 mph 84 % 0.00 in
08:44 60.3 °F 55.1 °F 30.30 in ENE 6.5 mph 10.4 mph 83 % 0.00 in
08:49 60.5 °F 55.0 °F 30.30 in NNE 4.9 mph 13.8 mph 82 % 0.00 in
08:54 60.7 °F 55.2 °F 30.30 in NNE 5.7 mph 10.4 mph 82 % 0.00 in
08:59 61.0 °F 55.1 °F 30.31 in NNE 2.7 mph 8.1 mph 81 % 0.00 in
09:04 61.2 °F 55.3 °F 30.30 in NNW 5.6 mph 10.4 mph 81 % 0.00 in
09:09 61.3 °F 55.4 °F 30.31 in NNE 3.7 mph 4.6 mph 81 % 0.00 in
09:14 61.5 °F 55.3 °F 30.31 in NE 6.1 mph 10.0 mph 80 % 0.00 in
09:19 61.6 °F 55.4 °F 30.31 in NNE 4.2 mph 7.0 mph 80 % 0.00 in
09:24 61.8 °F 55.6 °F 30.31 in NNE 5.8 mph 10.0 mph 80 % 0.00 in
09:29 62.0 °F 55.8 °F 30.31 in NE 3.6 mph 6.9 mph 80 % 0.00 in
09:34 62.1 °F 55.9 °F 30.31 in NNE 2.7 mph 5.8 mph 80 % 0.00 in
09:39 62.3 °F 55.7 °F 30.31 in NNE 6.0 mph 11.5 mph 79 % 0.00 in
09:44 62.7 °F 56.1 °F 30.31 in NE 5.4 mph 13.8 mph 79 % 0.00 in
09:54 63.7 °F 56.0 °F 30.31 in ENE 4.6 mph 12.7 mph 76 % 0.00 in
09:59 64.1 °F 56.4 °F 30.31 in NNE 5.1 mph 10.4 mph 76 % 0.00 in
10:04 64.4 °F 56.3 °F 30.31 in ENE 5.4 mph 6.9 mph 75 % 0.00 in
10:09 64.6 °F 56.5 °F 30.31 in NNE 4.5 mph 6.9 mph 75 % 0.00 in
10:15 64.8 °F 56.3 °F 30.31 in ENE 4.1 mph 5.8 mph 74 % 0.00 in
10:20 64.8 °F 55.9 °F 30.31 in NNE 4.1 mph 11.5 mph 73 % 0.00 in
10:25 64.9 °F 56.0 °F 30.31 in ENE 3.0 mph 6.9 mph 73 % 0.00 in
10:30 65.0 °F 56.5 °F 30.31 in North 5.6 mph 11.5 mph 74 % 0.00 in
10:35 65.0 °F 56.5 °F 30.31 in North 6.4 mph 8.1 mph 74 % 0.00 in
10:40 65.2 °F 56.7 °F 30.31 in ENE 4.3 mph 10.0 mph 74 % 0.00 in
10:45 65.3 °F 56.8 °F 30.31 in NNE 4.6 mph 8.1 mph 74 % 0.00 in
10:50 65.6 °F 56.7 °F 30.31 in North 5.5 mph 10.4 mph 73 % 0.00 in
10:55 65.9 °F 56.6 °F 30.31 in North 4.5 mph 10.4 mph 72 % 0.00 in
11:00 66.3 °F 57.0 °F 30.31 in NNE 5.2 mph 10.4 mph 72 % 0.00 in
11:05 66.6 °F 57.3 °F 30.31 in North 3.7 mph 6.9 mph 72 % 0.00 in
11:10 67.1 °F 57.4 °F 30.31 in North 2.7 mph 5.0 mph 71 % 0.00 in
11:15 67.8 °F 57.7 °F 30.31 in North 2.6 mph 5.8 mph 70 % 0.00 in
11:20 68.7 °F 57.7 °F 30.31 in NNE 4.1 mph 7.0 mph 68 % 0.00 in
11:25 69.6 °F 58.2 °F 30.31 in North 4.7 mph 8.1 mph 67 % 0.00 in
11:30 70.3 °F 58.8 °F 30.30 in NNE 3.0 mph 4.6 mph 67 % 0.00 in
11:35 71.0 °F 59.9 °F 30.30 in NNE 2.6 mph 5.0 mph 68 % 0.00 in
11:40 71.7 °F 58.9 °F 30.31 in NNW 3.6 mph 5.0 mph 64 % 0.00 in
11:45 72.1 °F 59.7 °F 30.30 in North 4.1 mph 7.0 mph 65 % 0.00 in
11:51 72.6 °F 59.3 °F 30.31 in NNE 2.0 mph 8.0 mph 63 % 0.00 in
11:56 73.0 °F 58.3 °F 30.31 in NNE 3.0 mph 6.0 mph 60 % 0.00 in
12:01 73.3 °F 58.6 °F 30.31 in NE 1.9 mph 3.0 mph 60 % 0.00 in
12:06 73.7 °F 58.9 °F 30.31 in NNE 1.2 mph 4.6 mph 60 % 0.00 in
12:11 74.0 °F 59.7 °F 30.30 in NNE 2.0 mph 6.0 mph 61 % 0.00 in
12:16 74.3 °F 58.6 °F 30.30 in NNE 1.0 mph 7.0 mph 58 % 0.00 in
12:21 74.5 °F 58.8 °F 30.30 in NE 3.0 mph 6.0 mph 58 % 0.00 in
12:26 74.7 °F 58.9 °F 30.30 in NNE 1.0 mph 5.0 mph 58 % 0.00 in
12:31 74.6 °F 59.3 °F 30.30 in NNE 1.0 mph 5.0 mph 59 % 0.00 in
12:36 74.7 °F 59.5 °F 30.30 in NNE 1.0 mph 6.0 mph 59 % 0.00 in
12:41 74.8 °F 58.5 °F 30.30 in NNE 1.0 mph 5.0 mph 57 % 0.00 in
12:46 75.0 °F 59.2 °F 30.30 in Calm   4.0 mph 58 % 0.00 in
12:51 75.3 °F 59.5 °F 30.30 in ENE 1.0 mph 2.0 mph 58 % 0.00 in
12:56 75.5 °F 59.2 °F 30.30 in Calm   2.0 mph 57 % 0.00 in
13:01 75.8 °F 59.0 °F 30.30 in North 2.0 mph 4.6 mph 56 % 0.00 in
13:06 75.9 °F 59.1 °F 30.29 in NNE 2.9 mph 4.0 mph 56 % 0.00 in
13:11 75.8 °F 58.0 °F 30.29 in ENE 1.1 mph 4.0 mph 54 % 0.00 in
13:16 75.6 °F 58.8 °F 30.29 in NE 1.4 mph 2.3 mph 56 % 0.00 in
13:21 75.7 °F 57.9 °F 30.29 in NNW 1.2 mph 3.5 mph 54 % 0.00 in
13:26 75.7 °F 57.9 °F 30.29 in NE 0.9 mph 2.3 mph 54 % 0.00 in
13:31 75.8 °F 59.0 °F 30.29 in ENE 1.0 mph 3.5 mph 56 % 0.00 in
13:36 75.8 °F 56.9 °F 30.28 in ENE 0.5 mph 3.5 mph 52 % 0.00 in
13:39 75.8 °F 59.0 °F 30.29 in NE 1.4 mph 3.5 mph 56 % 0.00 in
13:44 75.8 °F 58.5 °F 30.29 in NE 0.1 mph 2.3 mph 55 % 0.00 in
13:49 75.9 °F 58.1 °F 30.28 in NNE 0.4 mph 2.3 mph 54 % 0.00 in
13:54 76.0 °F 57.6 °F 30.29 in NNE 0.1 mph 1.2 mph 53 % 0.00 in
13:59 76.0 °F 58.2 °F 30.28 in NNE 0.6 mph 1.2 mph 54 % 0.00 in
14:04 76.2 °F 58.9 °F 30.28 in NNE 0.8 mph 2.3 mph 55 % 0.00 in
14:10 76.1 °F 56.7 °F 30.28 in NNE 0.3 mph 1.2 mph 51 % 0.00 in
14:15 76.3 °F 58.4 °F 30.28 in Calm     54 % 0.00 in
14:20 76.4 °F 58.0 °F 30.28 in NW 0.7 mph 2.3 mph 53 % 0.00 in
14:25 76.5 °F 57.6 °F 30.28 in NW 0.2 mph 4.6 mph 52 % 0.00 in
14:30 76.4 °F 59.0 °F 30.28 in NNE 1.4 mph 3.5 mph 55 % 0.00 in
14:35 76.5 °F 58.6 °F 30.28 in North 0.3 mph 4.0 mph 54 % 0.00 in
14:40 76.5 °F 58.1 °F 30.28 in North 2.5 mph 4.6 mph 53 % 0.00 in
14:45 76.5 °F 57.0 °F 30.27 in West 1.5 mph 3.5 mph 51 % 0.00 in
14:50 76.7 °F 57.7 °F 30.27 in North 2.2 mph 4.0 mph 52 % 0.00 in
14:55 76.7 °F 58.8 °F 30.27 in Calm   1.2 mph 54 % 0.00 in
15:00 76.7 °F 57.2 °F 30.27 in North 0.9 mph 2.3 mph 51 % 0.00 in
15:05 76.7 °F 57.7 °F 30.27 in NNW 0.5 mph 3.0 mph 52 % 0.00 in
15:10 76.4 °F 57.5 °F 30.27 in West 2.4 mph 3.5 mph 52 % 0.00 in
15:15 76.3 °F 57.9 °F 30.27 in Calm   1.2 mph 53 % 0.00 in
15:20 76.2 °F 58.9 °F 30.27 in NNW 1.0 mph 3.5 mph 55 % 0.00 in
15:25 76.1 °F 57.7 °F 30.27 in Calm   2.3 mph 53 % 0.00 in
15:30 76.2 °F 57.3 °F 30.27 in NNW 1.7 mph 3.5 mph 52 % 0.00 in
15:36 76.1 °F 57.7 °F 30.27 in NNW 2.0 mph 4.0 mph 53 % 0.00 in
15:41 76.1 °F 57.2 °F 30.27 in NNW 1.0 mph 5.0 mph 52 % 0.00 in
15:46 75.8 °F 57.9 °F 30.27 in North 2.0 mph 6.0 mph 54 % 0.00 in
15:51 75.7 °F 58.4 °F 30.27 in Calm   3.0 mph 55 % 0.00 in
15:56 75.7 °F 57.9 °F 30.27 in NW 2.0 mph 7.0 mph 54 % 0.00 in
16:01 75.9 °F 57.5 °F 30.27 in NNW 0.3 mph 2.3 mph 53 % 0.00 in
16:06 76.0 °F 57.6 °F 30.27 in Calm   4.0 mph 53 % 0.00 in
16:11 76.1 °F 57.7 °F 30.27 in NNW 2.0 mph 4.0 mph 53 % 0.00 in
16:16 76.2 °F 56.7 °F 30.27 in Calm   4.0 mph 51 % 0.00 in
16:21 76.2 °F 57.8 °F 30.27 in NW 1.0 mph 5.0 mph 53 % 0.00 in
16:26 76.0 °F 58.2 °F 30.27 in NW 1.0 mph 4.0 mph 54 % 0.00 in
16:31 75.7 °F 57.9 °F 30.27 in NW 2.0 mph 4.0 mph 54 % 0.00 in
16:36 75.1 °F 57.4 °F 30.28 in North 1.0 mph 6.0 mph 54 % 0.00 in
16:41 74.5 °F 57.3 °F 30.27 in North 1.0 mph 5.0 mph 55 % 0.00 in
16:46 74.2 °F 57.0 °F 30.27 in North 1.7 mph 5.0 mph 55 % 0.00 in
16:51 74.0 °F 56.8 °F 30.27 in NNW 1.0 mph 4.0 mph 55 % 0.00 in
16:56 73.7 °F 56.0 °F 30.28 in NNW 3.0 mph 6.0 mph 54 % 0.00 in
17:01 73.3 °F 57.1 °F 30.28 in NW 1.1 mph 2.3 mph 57 % 0.00 in
17:06 73.2 °F 56.6 °F 30.28 in NNW 1.0 mph 6.0 mph 56 % 0.00 in
17:11 73.1 °F 56.0 °F 30.27 in NW 1.8 mph 4.6 mph 55 % 0.00 in
17:16 73.1 °F 57.4 °F 30.28 in WNW 0.5 mph 2.3 mph 58 % 0.00 in
17:21 73.0 °F 56.9 °F 30.27 in NW 1.0 mph 3.5 mph 57 % 0.00 in
17:26 72.7 °F 56.1 °F 30.28 in North 0.9 mph 2.3 mph 56 % 0.00 in
17:29 72.6 °F 56.5 °F 30.28 in NNE 4.0 mph 6.9 mph 57 % 0.00 in
17:34 72.3 °F 56.7 °F 30.28 in West 0.2 mph 3.5 mph 58 % 0.00 in
17:39 72.1 °F 56.5 °F 30.28 in NNW 0.9 mph 3.5 mph 58 % 0.00 in
17:44 71.8 °F 56.2 °F 30.28 in North 1.5 mph 4.0 mph 58 % 0.00 in
17:49 71.5 °F 55.5 °F 30.28 in NW 1.4 mph 5.8 mph 57 % 0.00 in
17:54 71.3 °F 55.8 °F 30.28 in SW 1.9 mph 4.6 mph 58 % 0.00 in
17:59 71.2 °F 55.7 °F 30.28 in WNW 0.1 mph 1.2 mph 58 % 0.00 in
18:04 71.0 °F 55.9 °F 30.28 in NW 1.7 mph 4.6 mph 59 % 0.00 in
18:09 70.8 °F 56.2 °F 30.28 in West 0.8 mph 5.8 mph 60 % 0.00 in
18:14 70.6 °F 54.6 °F 30.28 in WNW 2.8 mph 4.0 mph 57 % 0.00 in
18:19 70.4 °F 55.4 °F 30.28 in North 4.7 mph 8.1 mph 59 % 0.00 in
18:24 70.2 °F 54.2 °F 30.28 in North 2.4 mph 5.0 mph 57 % 0.00 in
18:29 69.9 °F 54.0 °F 30.28 in NNE 6.1 mph 9.2 mph 57 % 0.00 in
18:34 69.6 °F 53.7 °F 30.28 in NNE 2.8 mph 6.9 mph 57 % 0.00 in
18:39 69.4 °F 54.0 °F 30.28 in NNE 1.1 mph 4.6 mph 58 % 0.00 in
18:44 69.2 °F 53.3 °F 30.28 in North 5.6 mph 6.0 mph 57 % 0.00 in
18:49 69.0 °F 54.1 °F 30.28 in NE 3.3 mph 6.0 mph 59 % 0.00 in
18:54 68.8 °F 53.4 °F 30.28 in North 2.0 mph 3.5 mph 58 % 0.00 in
18:59 68.6 °F 53.7 °F 30.28 in NNE 2.3 mph 4.6 mph 59 % 0.00 in
19:04 68.4 °F 53.5 °F 30.28 in Calm   3.5 mph 59 % 0.00 in
19:09 68.3 °F 53.4 °F 30.28 in NNW 2.0 mph 5.0 mph 59 % 0.00 in
19:14 68.2 °F 53.3 °F 30.28 in NNW 0.7 mph 3.5 mph 59 % 0.00 in
19:19 68.1 °F 53.7 °F 30.28 in NNW 3.4 mph 5.0 mph 60 % 0.00 in
19:25 68.0 °F 53.6 °F 30.28 in North 1.0 mph 4.0 mph 60 % 0.00 in
19:30 67.9 °F 53.5 °F 30.28 in NW 0.8 mph 3.5 mph 60 % 0.00 in
19:35 67.7 °F 53.3 °F 30.28 in WNW 2.1 mph 6.0 mph 60 % 0.00 in
19:40 67.6 °F 52.8 °F 30.28 in NNW 0.5 mph 3.5 mph 59 % 0.00 in
19:45 67.4 °F 52.6 °F 30.28 in NW 1.5 mph 3.5 mph 59 % 0.00 in
19:50 67.2 °F 52.8 °F 30.28 in NNW 0.2 mph 2.3 mph 60 % 0.00 in
19:55 67.1 °F 52.3 °F 30.28 in NNE 3.4 mph 6.9 mph 59 % 0.00 in
20:00 67.0 °F 52.2 °F 30.28 in North 0.5 mph 4.6 mph 59 % 0.00 in
20:05 66.9 °F 52.6 °F 30.28 in North 0.5 mph 2.3 mph 60 % 0.00 in
20:10 66.9 °F 53.0 °F 30.28 in NE 1.8 mph 6.9 mph 61 % 0.00 in
20:15 66.7 °F 52.8 °F 30.28 in NW 0.1 mph 1.2 mph 61 % 0.00 in
20:20 66.7 °F 52.8 °F 30.28 in WNW 2.9 mph 3.5 mph 61 % 0.00 in
20:21 66.6 °F 52.7 °F 30.28 in WNW 1.9 mph 4.6 mph 61 % 0.00 in
20:26 66.6 °F 52.7 °F 30.28 in NNE 1.1 mph 6.9 mph 61 % 0.00 in
20:31 66.5 °F 52.6 °F 30.28 in NNW 4.4 mph 9.0 mph 61 % 0.00 in
20:36 66.4 °F 52.5 °F 30.29 in NE 4.5 mph 6.0 mph 61 % 0.00 in
20:41 66.3 °F 52.4 °F 30.29 in NNE 3.4 mph 5.8 mph 61 % 0.00 in
20:46 66.3 °F 52.9 °F 30.29 in NNE 2.7 mph 5.8 mph 62 % 0.00 in
20:51 66.3 °F 52.9 °F 30.29 in NNW 4.1 mph 8.1 mph 62 % 0.00 in
20:56 66.2 °F 53.2 °F 30.29 in North 3.9 mph 6.9 mph 63 % 0.00 in
21:01 66.1 °F 53.1 °F 30.29 in NNE 3.1 mph 6.9 mph 63 % 0.00 in
21:06 66.1 °F 52.7 °F 30.29 in North 4.4 mph 8.1 mph 62 % 0.00 in
21:11 66.0 °F 53.0 °F 30.29 in NNW 3.9 mph 5.8 mph 63 % 0.00 in
21:16 66.0 °F 53.5 °F 30.29 in North 2.3 mph 4.6 mph 64 % 0.00 in
21:21 65.9 °F 53.4 °F 30.29 in NNE 1.4 mph 3.5 mph 64 % 0.00 in
21:26 65.8 °F 53.3 °F 30.29 in NNE 4.6 mph 8.1 mph 64 % 0.00 in
21:31 65.7 °F 52.8 °F 30.29 in North 2.9 mph 5.8 mph 63 % 0.00 in
21:36 65.7 °F 53.2 °F 30.29 in North 2.6 mph 5.8 mph 64 % 0.00 in
21:41 65.6 °F 53.1 °F 30.29 in NNE 2.3 mph 5.8 mph 64 % 0.00 in
21:46 65.5 °F 53.4 °F 30.29 in North 3.5 mph 4.0 mph 65 % 0.00 in
21:51 65.4 °F 53.3 °F 30.29 in North 1.9 mph 4.0 mph 65 % 0.00 in
21:56 65.3 °F 53.2 °F 30.29 in NNW 0.5 mph 3.5 mph 65 % 0.00 in
21:57 65.3 °F 53.2 °F 30.29 in NNE 1.5 mph 4.0 mph 65 % 0.00 in
22:02 65.2 °F 53.6 °F 30.30 in North 0.5 mph 4.0 mph 66 % 0.00 in
22:07 65.1 °F 53.9 °F 30.30 in NE 0.4 mph 3.5 mph 67 % 0.00 in
22:12 65.0 °F 53.8 °F 30.30 in NNE 0.3 mph 3.5 mph 67 % 0.00 in
22:17 65.0 °F 54.2 °F 30.30 in WNW 0.2 mph 3.5 mph 68 % 0.00 in
22:22 64.8 °F 53.6 °F 30.30 in NNE 0.1 mph 3.5 mph 67 % 0.00 in
22:27 64.7 °F 53.9 °F 30.30 in Calm     68 % 0.00 in
22:32 64.6 °F 53.8 °F 30.31 in NW 1.3 mph 4.6 mph 68 % 0.00 in
22:37 64.5 °F 53.7 °F 30.30 in WNW 1.0 mph 3.5 mph 68 % 0.00 in
22:42 64.4 °F 53.6 °F 30.31 in NW 0.4 mph 1.2 mph 68 % 0.00 in
22:48 64.2 °F 53.8 °F 30.31 in NW 0.1 mph 1.2 mph 69 % 0.00 in
22:53 64.1 °F 53.7 °F 30.31 in NNW 1.2 mph 4.0 mph 69 % 0.00 in
22:58 63.9 °F 53.5 °F 30.31 in NW 0.6 mph 2.3 mph 69 % 0.00 in
23:03 63.8 °F 53.4 °F 30.31 in WNW 1.2 mph 3.5 mph 69 % 0.00 in
23:08 63.6 °F 53.2 °F 30.31 in Calm   1.2 mph 69 % 0.00 in
23:13 63.5 °F 53.5 °F 30.31 in Calm   1.2 mph 70 % 0.00 in
23:20 63.3 °F 53.3 °F 30.30 in WNW 0.2 mph 3.5 mph 70 % 0.00 in
23:22 63.2 °F 53.3 °F 30.30 in NNW 2.3 mph 4.0 mph 70 % 0.00 in
23:27 63.0 °F 53.1 °F 30.31 in NW 0.5 mph 3.5 mph 70 % 0.00 in
23:29 62.9 °F 53.0 °F 30.31 in WNW 0.1 mph 3.5 mph 70 % 0.00 in
23:31 62.9 °F 53.0 °F 30.31 in NNW 0.3 mph 3.5 mph 70 % 0.00 in
23:33 62.8 °F 52.9 °F 30.30 in WNW 1.2 mph 6.0 mph 70 % 0.00 in
23:38 62.7 °F 52.8 °F 30.31 in North 0.2 mph 3.5 mph 70 % 0.00 in
23:41 62.7 °F 53.2 °F 30.30 in North 0.1 mph 1.2 mph 71 % 0.00 in
23:46 62.6 °F 53.1 °F 30.31 in Calm     71 % 0.00 in
23:51 62.5 °F 53.3 °F 30.30 in Calm     72 % 0.00 in
23:56 62.4 °F 53.6 °F 30.30 in Calm     73 % 0.00 in
Crab Meadow Weather
Compliments of Weather Underground - 3 mb

Script developed by  Jim McMurry - jmcmurry@mwt.net Adapted for the template by  Wim van der Kuil - Leuven-Template.eu

Weather Terms: Flood Stage - The level or stage at which a stream overflows its banks or the stage at which the overflow of a stream begins to cause damage.